Time,TemperatureF,DewpointF,PressureIn,WindDirection,WindDirectionDegrees,WindSpeedMPH,WindSpeedGustMPH,Humidity,HourlyPrecipIn,Conditions,Clouds,dailyrainin,SoftwareType,DateUTC
2013-02-24 00:01:00,3.0,0.0,30.03,ENE,66,0.0,1.0,87,0.00,,,0.00,,2013-02-24 06:01:00,
2013-02-24 00:11:00,3.0,0.0,30.03,ENE,66,0.0,1.0,87,0.00,,,0.00,,2013-02-24 06:11:00,
2013-02-24 00:21:00,4.0,1.0,30.03,East,79,0.0,1.0,88,0.00,,,0.00,,2013-02-24 06:21:00,
2013-02-24 00:31:00,5.0,2.0,30.03,East,81,0.0,0.0,88,0.00,,,0.00,,2013-02-24 06:31:00,
2013-02-24 00:42:00,5.0,2.0,30.03,East,81,0.0,0.0,88,0.00,,,0.00,,2013-02-24 06:42:00,
2013-02-24 00:52:00,5.0,2.0,30.03,East,96,0.0,1.0,88,0.00,,,0.00,,2013-02-24 06:52:00,
2013-02-24 01:01:00,7.0,4.0,30.03,SE,129,0.0,1.0,89,0.00,,,0.00,,2013-02-24 07:01:00,
2013-02-24 01:12:00,7.0,4.0,30.03,SE,129,0.0,1.0,89,0.00,,,0.00,,2013-02-24 07:12:00,
2013-02-24 01:21:00,6.0,3.0,30.03,ESE,104,0.0,1.0,88,0.00,,,0.00,,2013-02-24 07:21:00,
2013-02-24 01:31:00,5.0,2.0,30.04,North,359,0.0,1.0,85,0.00,,,0.00,,2013-02-24 07:31:00,
2013-02-24 01:42:00,5.0,2.0,30.04,North,359,0.0,1.0,85,0.00,,,0.00,,2013-02-24 07:42:00,
2013-02-24 01:52:00,1.0,-2.0,30.04,North,356,0.0,1.0,85,0.00,,,0.00,,2013-02-24 07:52:00,
2013-02-24 02:01:00,1.0,-2.0,30.04,North,359,0.0,1.0,85,0.00,,,0.00,,2013-02-24 08:01:00,
2013-02-24 02:11:00,1.0,-2.0,30.04,North,359,0.0,1.0,85,0.00,,,0.00,,2013-02-24 08:11:00,
2013-02-24 02:22:00,1.0,-2.0,30.04,North,358,0.0,1.0,85,0.00,,,0.00,,2013-02-24 08:22:00,
2013-02-24 02:31:00,0.0,-3.0,30.05,North,357,0.0,1.0,86,0.00,,,0.00,,2013-02-24 08:31:00,
2013-02-24 02:42:00,0.0,-3.0,30.05,North,357,0.0,1.0,86,0.00,,,0.00,,2013-02-24 08:42:00,
2013-02-24 02:54:00,1.0,-2.0,30.04,North,358,0.0,1.0,86,0.00,,,0.00,,2013-02-24 08:54:00,
2013-02-24 03:01:00,2.0,-1.0,30.05,North,358,0.0,1.0,87,0.00,,,0.00,,2013-02-24 09:01:00,
2013-02-24 03:11:00,2.0,-1.0,30.05,North,358,0.0,1.0,87,0.00,,,0.00,,2013-02-24 09:11:00,
2013-02-24 03:21:00,2.0,-1.0,30.05,North,359,0.0,1.0,86,0.00,,,0.00,,2013-02-24 09:21:00,
2013-02-24 03:31:00,1.0,-2.0,30.06,North,358,0.0,0.0,86,0.00,,,0.00,,2013-02-24 09:31:00,
2013-02-24 03:42:00,1.0,-2.0,30.06,North,358,0.0,0.0,86,0.00,,,0.00,,2013-02-24 09:42:00,
2013-02-24 03:52:00,1.0,-2.0,30.05,North,358,0.0,1.0,86,0.00,,,0.00,,2013-02-24 09:52:00,
2013-02-24 04:01:00,0.0,-3.0,30.06,North,357,0.0,1.0,85,0.00,,,0.00,,2013-02-24 10:01:00,
2013-02-24 04:11:00,0.0,-3.0,30.06,North,357,0.0,1.0,85,0.00,,,0.00,,2013-02-24 10:11:00,
2013-02-24 04:21:00,2.0,-1.0,30.06,North,357,0.0,0.0,88,0.00,,,0.00,,2013-02-24 10:21:00,
2013-02-24 04:31:00,3.0,0.0,30.06,North,357,0.0,1.0,87,0.00,,,0.00,,2013-02-24 10:31:00,
2013-02-24 04:41:00,3.0,0.0,30.06,North,357,0.0,1.0,87,0.00,,,0.00,,2013-02-24 10:41:00,
2013-02-24 04:52:00,1.0,-3.0,30.06,North,351,0.0,0.0,84,0.00,,,0.00,,2013-02-24 10:52:00,
2013-02-24 05:01:00,1.0,-2.0,30.07,North,352,0.0,1.0,86,0.00,,,0.00,,2013-02-24 11:01:00,
2013-02-24 05:11:00,1.0,-2.0,30.07,North,352,0.0,1.0,86,0.00,,,0.00,,2013-02-24 11:11:00,
2013-02-24 05:21:00,2.0,-1.0,30.07,North,359,0.0,0.0,87,0.00,,,0.00,,2013-02-24 11:21:00,
2013-02-24 05:32:00,4.0,1.0,30.07,East,92,0.0,1.0,88,0.00,,,0.00,,2013-02-24 11:32:00,
2013-02-24 05:41:00,4.0,1.0,30.07,East,92,0.0,1.0,88,0.00,,,0.00,,2013-02-24 11:41:00,
2013-02-24 05:53:00,5.0,2.0,30.07,SE,129,0.0,1.0,88,0.00,,,0.00,,2013-02-24 11:53:00,
2013-02-24 06:01:00,4.0,1.0,30.07,SE,128,0.0,0.0,87,0.00,,,0.00,,2013-02-24 12:01:00,
2013-02-24 06:11:00,4.0,1.0,30.07,SE,128,0.0,0.0,87,0.00,,,0.00,,2013-02-24 12:11:00,
2013-02-24 06:22:00,3.0,0.0,30.08,SE,129,0.0,0.0,86,0.00,,,0.00,,2013-02-24 12:22:00,
2013-02-24 06:32:00,3.0,0.0,30.08,North,354,0.0,1.0,85,0.00,,,0.00,,2013-02-24 12:32:00,
2013-02-24 06:46:00,3.0,0.0,30.08,North,354,0.0,1.0,85,0.00,,,0.00,,2013-02-24 12:46:00,
2013-02-24 06:56:00,1.0,-3.0,30.09,North,354,0.0,1.0,84,0.00,,,0.00,,2013-02-24 12:56:00,
2013-02-24 07:16:00,1.0,-2.0,30.10,North,354,0.0,1.0,86,0.00,,,0.00,,2013-02-24 13:16:00,
2013-02-24 07:26:00,2.0,-1.0,30.10,North,354,0.0,0.0,87,0.00,,,0.00,,2013-02-24 13:26:00,
2013-02-24 07:33:00,2.0,-1.0,30.10,North,354,0.0,0.0,86,0.00,,,0.00,,2013-02-24 13:33:00,
2013-02-24 07:44:00,2.0,-1.0,30.10,North,354,0.0,0.0,86,0.00,,,0.00,,2013-02-24 13:44:00,
2013-02-24 07:55:00,4.0,1.0,30.11,North,354,0.0,0.0,88,0.00,,,0.00,,2013-02-24 13:55:00,
2013-02-24 08:03:00,7.0,4.0,30.11,North,354,0.0,0.0,88,0.00,,,0.00,,2013-02-24 14:03:00,
2013-02-24 08:13:00,7.0,4.0,30.11,North,354,0.0,0.0,88,0.00,,,0.00,,2013-02-24 14:13:00,
2013-02-24 08:24:00,8.0,5.0,30.11,North,354,0.0,0.0,88,0.00,,,0.00,,2013-02-24 14:24:00,
2013-02-24 08:33:00,8.0,5.0,30.11,North,354,0.0,1.0,87,0.00,,,0.00,,2013-02-24 14:33:00,
2013-02-24 08:44:00,8.0,5.0,30.11,North,354,0.0,1.0,87,0.00,,,0.00,,2013-02-24 14:44:00,
2013-02-24 08:54:00,10.0,7.0,30.11,North,354,0.0,0.0,89,0.00,,,0.00,,2013-02-24 14:54:00,
2013-02-24 09:02:00,13.0,10.0,30.12,North,360,0.0,1.0,88,0.00,,,0.00,,2013-02-24 15:02:00,
2013-02-24 09:13:00,13.0,10.0,30.12,North,360,0.0,1.0,88,0.00,,,0.00,,2013-02-24 15:13:00,
2013-02-24 09:23:00,11.0,7.0,30.12,North,358,0.0,1.0,85,0.00,,,0.00,,2013-02-24 15:23:00,
2013-02-24 09:32:00,10.0,7.0,30.13,North,6,0.0,1.0,87,0.00,,,0.00,,2013-02-24 15:32:00,
2013-02-24 09:42:00,10.0,7.0,30.13,North,6,0.0,1.0,87,0.00,,,0.00,,2013-02-24 15:42:00,
2013-02-24 09:53:00,13.0,11.0,30.13,NNE,12,0.0,1.0,91,0.00,,,0.00,,2013-02-24 15:53:00,
2013-02-24 10:01:00,14.0,11.0,30.14,ENE,74,0.0,1.0,87,0.00,,,0.00,,2013-02-24 16:01:00,
2013-02-24 10:11:00,14.0,11.0,30.14,ENE,74,0.0,1.0,87,0.00,,,0.00,,2013-02-24 16:11:00,
2013-02-24 10:21:00,16.0,12.0,30.14,East,98,0.0,2.0,85,0.00,,,0.00,,2013-02-24 16:21:00,
2013-02-24 10:32:00,16.0,12.0,30.14,SE,124,0.0,1.0,85,0.00,,,0.00,,2013-02-24 16:32:00,
2013-02-24 10:42:00,16.0,12.0,30.14,SE,124,0.0,1.0,85,0.00,,,0.00,,2013-02-24 16:42:00,
2013-02-24 10:52:00,20.0,15.0,30.15,South,183,0.0,2.0,82,0.00,,,0.00,,2013-02-24 16:52:00,
2013-02-24 11:01:00,20.0,15.0,30.14,SSE,165,0.0,2.0,82,0.00,,,0.00,,2013-02-24 17:01:00,
2013-02-24 11:11:00,20.0,15.0,30.14,SSE,165,0.0,2.0,82,0.00,,,0.00,,2013-02-24 17:11:00,
2013-02-24 11:21:00,22.0,16.0,30.14,SE,129,0.0,2.0,79,0.00,,,0.00,,2013-02-24 17:21:00,
2013-02-24 11:32:00,24.0,18.0,30.15,SE,146,1.0,3.0,76,0.00,,,0.00,,2013-02-24 17:32:00,
2013-02-24 11:42:00,24.0,18.0,30.15,SE,146,1.0,3.0,76,0.00,,,0.00,,2013-02-24 17:42:00,
2013-02-24 11:53:00,26.0,19.0,30.15,South,186,2.0,4.0,74,0.00,,,0.00,,2013-02-24 17:53:00,
2013-02-24 12:01:00,26.0,19.0,30.16,South,173,3.0,5.0,74,0.00,,,0.00,,2013-02-24 18:01:00,
2013-02-24 12:11:00,26.0,19.0,30.16,South,173,3.0,5.0,74,0.00,,,0.00,,2013-02-24 18:11:00,
2013-02-24 12:22:00,24.0,18.0,30.16,WSW,245,2.0,6.0,79,0.00,,,0.00,,2013-02-24 18:22:00,
2013-02-24 12:32:00,25.0,19.0,30.16,WSW,246,1.0,5.0,79,0.00,,,0.00,,2013-02-24 18:32:00,
2013-02-24 12:42:00,25.0,19.0,30.16,WSW,246,1.0,5.0,79,0.00,,,0.00,,2013-02-24 18:42:00,
2013-02-24 12:52:00,26.0,20.0,30.15,SSE,165,1.0,4.0,77,0.00,,,0.00,,2013-02-24 18:52:00,
2013-02-24 13:01:00,25.0,19.0,30.14,ENE,76,0.0,2.0,79,0.00,,,0.00,,2013-02-24 19:01:00,
2013-02-24 13:11:00,25.0,19.0,30.14,ENE,76,0.0,2.0,79,0.00,,,0.00,,2013-02-24 19:11:00,
2013-02-24 13:22:00,25.0,20.0,30.14,SE,141,2.0,4.0,82,0.00,,,0.00,,2013-02-24 19:22:00,
2013-02-24 13:32:00,27.0,22.0,30.14,SSE,158,3.0,5.0,80,0.00,,,0.00,,2013-02-24 19:32:00,
2013-02-24 13:42:00,27.0,22.0,30.14,SSE,158,3.0,5.0,80,0.00,,,0.00,,2013-02-24 19:42:00,
2013-02-24 13:52:00,27.0,21.0,30.14,SSW,197,2.0,5.0,79,0.00,,,0.00,,2013-02-24 19:52:00,
2013-02-24 14:02:00,28.0,22.0,30.13,South,184,2.0,4.0,77,0.00,,,0.00,,2013-02-24 20:02:00,
2013-02-24 14:11:00,28.0,22.0,30.13,South,184,2.0,4.0,77,0.00,,,0.00,,2013-02-24 20:11:00,
2013-02-24 14:21:00,28.0,22.0,30.12,ESE,121,1.0,3.0,79,0.00,,,0.00,,2013-02-24 20:21:00,
2013-02-24 14:32:00,28.0,23.0,30.12,SSW,200,1.0,3.0,80,0.00,,,0.00,,2013-02-24 20:32:00,
2013-02-24 14:42:00,28.0,23.0,30.12,SSW,200,1.0,3.0,80,0.00,,,0.00,,2013-02-24 20:42:00,
2013-02-24 14:52:00,28.0,23.0,30.11,East,94,0.0,3.0,82,0.00,,,0.00,,2013-02-24 20:52:00,
2013-02-24 15:01:00,29.0,24.0,30.11,ENE,67,1.0,3.0,81,0.00,,,0.00,,2013-02-24 21:01:00,
2013-02-24 15:11:00,29.0,24.0,30.11,ENE,67,1.0,3.0,81,0.00,,,0.00,,2013-02-24 21:11:00,
2013-02-24 15:21:00,28.0,23.0,30.11,ESE,105,2.0,4.0,81,0.00,,,0.00,,2013-02-24 21:21:00,
2013-02-24 15:32:00,30.0,24.0,30.11,SSW,205,0.0,3.0,79,0.00,,,0.00,,2013-02-24 21:32:00,
2013-02-24 15:42:00,30.0,24.0,30.11,SSW,205,0.0,3.0,79,0.00,,,0.00,,2013-02-24 21:42:00,
2013-02-24 15:52:00,29.0,24.0,30.11,East,101,1.0,3.0,81,0.00,,,0.00,,2013-02-24 21:52:00,
2013-02-24 16:01:00,29.0,25.0,30.11,South,186,1.0,4.0,84,0.00,,,0.00,,2013-02-24 22:01:00,
2013-02-24 16:11:00,29.0,25.0,30.11,South,186,1.0,4.0,84,0.00,,,0.00,,2013-02-24 22:11:00,
2013-02-24 16:21:00,30.0,25.0,30.11,SSE,168,5.0,8.0,81,0.00,,,0.00,,2013-02-24 22:21:00,
2013-02-24 16:31:00,29.0,24.0,30.11,SSE,156,3.0,7.0,82,0.00,,,0.00,,2013-02-24 22:31:00,
2013-02-24 16:41:00,29.0,24.0,30.11,SSE,156,3.0,7.0,82,0.00,,,0.00,,2013-02-24 22:41:00,
2013-02-24 16:52:00,29.0,24.0,30.12,SSE,160,2.0,4.0,82,0.00,,,0.00,,2013-02-24 22:52:00,
2013-02-24 17:02:00,29.0,24.0,30.12,SSE,160,2.0,4.0,82,0.00,,,0.00,,2013-02-24 23:02:00,
2013-02-24 17:11:00,29.0,24.0,30.12,SSE,160,2.0,4.0,82,0.00,,,0.00,,2013-02-24 23:11:00,
2013-02-24 17:21:00,29.0,24.0,30.12,SSE,160,2.0,4.0,82,0.00,,,0.00,,2013-02-24 23:21:00,
2013-02-24 17:31:00,29.0,25.0,30.12,South,184,0.0,1.0,83,0.00,,,0.00,,2013-02-24 23:31:00,
2013-02-24 17:42:00,29.0,25.0,30.12,South,184,0.0,1.0,83,0.00,,,0.00,,2013-02-24 23:42:00,
2013-02-24 17:52:00,29.0,25.0,30.12,South,183,0.0,1.0,83,0.00,,,0.00,,2013-02-24 23:52:00,
2013-02-24 18:01:00,29.0,25.0,30.12,South,183,0.0,1.0,83,0.00,,,0.00,,2013-02-25 00:01:00,
2013-02-24 18:11:00,29.0,25.0,30.12,South,183,0.0,1.0,83,0.00,,,0.00,,2013-02-25 00:11:00,
2013-02-24 18:21:00,28.0,24.0,30.13,South,184,0.0,0.0,85,0.00,,,0.00,,2013-02-25 00:21:00,
2013-02-24 18:31:00,28.0,25.0,30.13,South,183,0.0,0.0,87,0.00,,,0.00,,2013-02-25 00:31:00,
2013-02-24 18:42:00,28.0,25.0,30.13,South,183,0.0,0.0,87,0.00,,,0.00,,2013-02-25 00:42:00,
2013-02-24 18:51:00,27.0,24.0,30.14,South,183,0.0,1.0,88,0.00,,,0.00,,2013-02-25 00:51:00,
2013-02-24 19:01:00,27.0,24.0,30.14,South,183,0.0,1.0,89,0.00,,,0.00,,2013-02-25 01:01:00,
2013-02-24 19:11:00,27.0,24.0,30.14,South,183,0.0,1.0,89,0.00,,,0.00,,2013-02-25 01:11:00,
2013-02-24 19:21:00,27.0,24.0,30.14,South,176,0.0,1.0,90,0.00,,,0.00,,2013-02-25 01:21:00,
2013-02-24 19:31:00,27.0,24.0,30.15,South,176,0.0,0.0,90,0.00,,,0.00,,2013-02-25 01:31:00,
2013-02-24 19:42:00,27.0,24.0,30.15,South,176,0.0,0.0,90,0.00,,,0.00,,2013-02-25 01:42:00,
2013-02-24 19:51:00,27.0,24.0,30.15,South,176,0.0,0.0,90,0.00,,,0.00,,2013-02-25 01:51:00,
2013-02-24 20:01:00,27.0,24.0,30.15,South,176,0.0,0.0,90,0.00,,,0.00,,2013-02-25 02:01:00,
2013-02-24 20:11:00,27.0,24.0,30.15,South,176,0.0,0.0,90,0.00,,,0.00,,2013-02-25 02:11:00,
2013-02-24 20:21:00,27.0,24.0,30.15,South,176,0.0,0.0,90,0.00,,,0.00,,2013-02-25 02:21:00,
2013-02-24 20:32:00,27.0,25.0,30.16,South,176,0.0,1.0,91,0.00,,,0.00,,2013-02-25 02:32:00,
2013-02-24 20:41:00,27.0,25.0,30.16,South,176,0.0,1.0,91,0.00,,,0.00,,2013-02-25 02:41:00,
2013-02-24 20:52:00,27.0,25.0,30.16,South,169,0.0,1.0,91,0.00,,,0.00,,2013-02-25 02:52:00,
2013-02-24 21:01:00,27.0,25.0,30.16,NNE,12,0.0,2.0,91,0.00,,,0.00,,2013-02-25 03:01:00,
2013-02-24 21:11:00,27.0,25.0,30.16,NNE,12,0.0,2.0,91,0.00,,,0.00,,2013-02-25 03:11:00,
2013-02-24 21:21:00,26.0,24.0,30.16,NNE,12,0.0,1.0,92,0.00,,,0.00,,2013-02-25 03:21:00,
2013-02-24 21:31:00,26.0,24.0,30.16,North,4,0.0,2.0,92,0.00,,,0.00,,2013-02-25 03:31:00,
2013-02-24 21:42:00,26.0,24.0,30.16,North,4,0.0,2.0,92,0.00,,,0.00,,2013-02-25 03:42:00,
2013-02-24 21:51:00,26.0,24.0,30.16,North,4,0.0,1.0,92,0.00,,,0.00,,2013-02-25 03:51:00,
2013-02-24 22:01:00,26.0,24.0,30.17,North,4,0.0,1.0,92,0.00,,,0.00,,2013-02-25 04:01:00,
2013-02-24 22:11:00,26.0,24.0,30.17,North,4,0.0,1.0,92,0.00,,,0.00,,2013-02-25 04:11:00,
2013-02-24 22:21:00,26.0,24.0,30.17,North,5,0.0,2.0,92,0.00,,,0.00,,2013-02-25 04:21:00,
2013-02-24 22:31:00,26.0,24.0,30.17,North,5,0.0,1.0,92,0.00,,,0.00,,2013-02-25 04:31:00,
2013-02-24 22:42:00,26.0,24.0,30.17,North,5,0.0,1.0,92,0.00,,,0.00,,2013-02-25 04:42:00,
2013-02-24 22:52:00,26.0,24.0,30.17,North,5,0.0,1.0,92,0.00,,,0.00,,2013-02-25 04:52:00,
2013-02-24 23:01:00,26.0,24.0,30.18,North,5,0.0,1.0,92,0.00,,,0.00,,2013-02-25 05:01:00,
2013-02-24 23:11:00,26.0,24.0,30.18,North,5,0.0,1.0,92,0.00,,,0.00,,2013-02-25 05:11:00,
2013-02-24 23:22:00,26.0,24.0,30.17,North,5,0.0,1.0,92,0.00,,,0.00,,2013-02-25 05:22:00,
2013-02-24 23:32:00,26.0,24.0,30.17,North,5,0.0,1.0,92,0.00,,,0.00,,2013-02-25 05:32:00,
2013-02-24 23:42:00,26.0,24.0,30.17,North,5,0.0,1.0,92,0.00,,,0.00,,2013-02-25 05:42:00,
2013-02-24 23:52:00,26.0,24.0,30.17,North,355,1.0,2.0,92,0.00,,,0.00,,2013-02-25 05:52:00,